sensor_id;sensor_type;location;lat;lon;timestamp;temperature;humidity
45983;DHT22;31711;47.158;7.346;2023-03-13T00:03:40;6.20;99.90
45983;DHT22;31711;47.158;7.346;2023-03-13T00:06:06;6.30;99.90
45983;DHT22;31711;47.158;7.346;2023-03-13T00:08:32;6.30;99.90
45983;DHT22;31711;47.158;7.346;2023-03-13T00:11:02;6.40;99.90
45983;DHT22;31711;47.158;7.346;2023-03-13T00:13:28;6.40;99.90
45983;DHT22;31711;47.158;7.346;2023-03-13T00:16:06;6.40;99.90
45983;DHT22;31711;47.158;7.346;2023-03-13T00:18:32;6.50;99.90
45983;DHT22;31711;47.158;7.346;2023-03-13T00:21:04;6.60;99.90
45983;DHT22;31711;47.158;7.346;2023-03-13T00:23:30;6.70;99.90
45983;DHT22;31711;47.158;7.346;2023-03-13T00:26:07;6.70;99.90
45983;DHT22;31711;47.158;7.346;2023-03-13T00:28:34;6.70;99.90
45983;DHT22;31711;47.158;7.346;2023-03-13T00:31:07;6.70;99.90
45983;DHT22;31711;47.158;7.346;2023-03-13T00:33:39;6.70;99.90
45983;DHT22;31711;47.158;7.346;2023-03-13T00:36:11;6.70;99.90
45983;DHT22;31711;47.158;7.346;2023-03-13T00:38:37;6.60;99.90
45983;DHT22;31711;47.158;7.346;2023-03-13T00:41:06;6.70;99.90
45983;DHT22;31711;47.158;7.346;2023-03-13T00:43:33;6.70;99.90
45983;DHT22;31711;47.158;7.346;2023-03-13T00:46:00;6.70;99.90
45983;DHT22;31711;47.158;7.346;2023-03-13T00:48:26;6.70;99.90
45983;DHT22;31711;47.158;7.346;2023-03-13T00:50:52;6.70;99.90
45983;DHT22;31711;47.158;7.346;2023-03-13T00:53:19;6.70;99.90
45983;DHT22;31711;47.158;7.346;2023-03-13T00:58:18;6.80;99.90
45983;DHT22;31711;47.158;7.346;2023-03-13T01:00:44;6.70;99.90
45983;DHT22;31711;47.158;7.346;2023-03-13T01:03:10;6.70;99.90
45983;DHT22;31711;47.158;7.346;2023-03-13T01:05:36;6.70;99.90
45983;DHT22;31711;47.158;7.346;2023-03-13T01:08:02;6.70;99.90
45983;DHT22;31711;47.158;7.346;2023-03-13T01:10:28;6.60;99.90
45983;DHT22;31711;47.158;7.346;2023-03-13T01:12:54;6.60;99.90
45983;DHT22;31711;47.158;7.346;2023-03-13T01:15:20;6.60;99.90
45983;DHT22;31711;47.158;7.346;2023-03-13T01:17:46;6.70;99.90
45983;DHT22;31711;47.158;7.346;2023-03-13T01:20:12;6.70;99.90
45983;DHT22;31711;47.158;7.346;2023-03-13T01:22:38;6.70;99.90
45983;DHT22;31711;47.158;7.346;2023-03-13T01:25:04;6.80;99.90
45983;DHT22;31711;47.158;7.346;2023-03-13T01:27:31;6.80;99.90
45983;DHT22;31711;47.158;7.346;2023-03-13T01:29:57;6.80;99.90
45983;DHT22;31711;47.158;7.346;2023-03-13T01:32:23;6.80;99.90
45983;DHT22;31711;47.158;7.346;2023-03-13T01:34:49;6.80;99.90
45983;DHT22;31711;47.158;7.346;2023-03-13T01:37:14;6.80;99.90
45983;DHT22;31711;47.158;7.346;2023-03-13T01:39:40;6.80;99.90
45983;DHT22;31711;47.158;7.346;2023-03-13T01:42:07;6.80;99.90
45983;DHT22;31711;47.158;7.346;2023-03-13T01:44:53;6.70;99.90
45983;DHT22;31711;47.158;7.346;2023-03-13T01:47:19;6.70;99.90
45983;DHT22;31711;47.158;7.346;2023-03-13T01:49:46;6.70;99.90
45983;DHT22;31711;47.158;7.346;2023-03-13T01:52:17;6.80;99.90
45983;DHT22;31711;47.158;7.346;2023-03-13T01:54:57;6.80;99.90
45983;DHT22;31711;47.158;7.346;2023-03-13T01:57:28;6.80;99.90
45983;DHT22;31711;47.158;7.346;2023-03-13T01:59:59;6.80;99.90
45983;DHT22;31711;47.158;7.346;2023-03-13T02:02:27;6.90;99.90
45983;DHT22;31711;47.158;7.346;2023-03-13T02:04:57;6.90;99.90
45983;DHT22;31711;47.158;7.346;2023-03-13T02:07:46;6.90;99.90
45983;DHT22;31711;47.158;7.346;2023-03-13T02:10:14;6.90;99.90
45983;DHT22;31711;47.158;7.346;2023-03-13T02:12:42;6.90;99.90
45983;DHT22;31711;47.158;7.346;2023-03-13T02:15:14;6.90;99.90
45983;DHT22;31711;47.158;7.346;2023-03-13T02:17:44;6.90;99.90
45983;DHT22;31711;47.158;7.346;2023-03-13T02:20:12;7.00;99.90
45983;DHT22;31711;47.158;7.346;2023-03-13T02:25:42;7.00;99.90
45983;DHT22;31711;47.158;7.346;2023-03-13T02:30:47;7.10;99.90
45983;DHT22;31711;47.158;7.346;2023-03-13T02:33:14;7.20;99.90
45983;DHT22;31711;47.158;7.346;2023-03-13T02:35:42;7.10;99.90
45983;DHT22;31711;47.158;7.346;2023-03-13T02:38:11;7.20;99.90
45983;DHT22;31711;47.158;7.346;2023-03-13T02:40:41;7.20;99.90
45983;DHT22;31711;47.158;7.346;2023-03-13T02:43:17;7.10;99.90
45983;DHT22;31711;47.158;7.346;2023-03-13T02:46:07;7.20;99.90
45983;DHT22;31711;47.158;7.346;2023-03-13T02:48:38;7.20;99.90
45983;DHT22;31711;47.158;7.346;2023-03-13T02:51:49;7.10;99.90
45983;DHT22;31711;47.158;7.346;2023-03-13T02:53:59;7.10;99.90
45983;DHT22;31711;47.158;7.346;2023-03-13T02:56:27;7.30;99.90
45983;DHT22;31711;47.158;7.346;2023-03-13T02:58:55;7.30;99.90
45983;DHT22;31711;47.158;7.346;2023-03-13T03:01:21;7.40;99.90
45983;DHT22;31711;47.158;7.346;2023-03-13T03:03:47;7.40;99.90
45983;DHT22;31711;47.158;7.346;2023-03-13T03:06:13;7.50;99.90
45983;DHT22;31711;47.158;7.346;2023-03-13T03:08:39;7.40;99.90
45983;DHT22;31711;47.158;7.346;2023-03-13T03:11:06;7.50;99.90
45983;DHT22;31711;47.158;7.346;2023-03-13T03:13:32;7.50;99.90
45983;DHT22;31711;47.158;7.346;2023-03-13T03:15:58;7.60;99.90
45983;DHT22;31711;47.158;7.346;2023-03-13T03:18:24;7.70;99.90
45983;DHT22;31711;47.158;7.346;2023-03-13T03:20:50;7.80;99.90
45983;DHT22;31711;47.158;7.346;2023-03-13T03:23:16;8.10;99.90
45983;DHT22;31711;47.158;7.346;2023-03-13T03:25:42;8.30;99.90
45983;DHT22;31711;47.158;7.346;2023-03-13T03:28:09;8.40;99.90
45983;DHT22;31711;47.158;7.346;2023-03-13T03:30:35;8.40;99.90
45983;DHT22;31711;47.158;7.346;2023-03-13T03:33:02;8.50;99.90
45983;DHT22;31711;47.158;7.346;2023-03-13T03:35:28;8.60;99.90
45983;DHT22;31711;47.158;7.346;2023-03-13T03:37:54;8.60;99.90
45983;DHT22;31711;47.158;7.346;2023-03-13T03:40:20;8.60;99.90
45983;DHT22;31711;47.158;7.346;2023-03-13T03:42:46;8.70;99.90
45983;DHT22;31711;47.158;7.346;2023-03-13T03:45:12;8.70;99.90
45983;DHT22;31711;47.158;7.346;2023-03-13T03:47:38;8.60;99.90
45983;DHT22;31711;47.158;7.346;2023-03-13T03:50:05;8.60;99.90
45983;DHT22;31711;47.158;7.346;2023-03-13T03:52:32;8.60;99.90
45983;DHT22;31711;47.158;7.346;2023-03-13T03:54:58;8.60;99.90
45983;DHT22;31711;47.158;7.346;2023-03-13T03:57:24;8.60;99.90
45983;DHT22;31711;47.158;7.346;2023-03-13T03:59:50;8.60;99.90
45983;DHT22;31711;47.158;7.346;2023-03-13T04:02:16;8.60;99.90
45983;DHT22;31711;47.158;7.346;2023-03-13T04:04:42;8.60;99.90
45983;DHT22;31711;47.158;7.346;2023-03-13T04:07:08;8.60;99.90
45983;DHT22;31711;47.158;7.346;2023-03-13T04:09:34;8.70;99.90
45983;DHT22;31711;47.158;7.346;2023-03-13T04:12:00;8.60;99.90
45983;DHT22;31711;47.158;7.346;2023-03-13T04:14:26;8.60;99.90
45983;DHT22;31711;47.158;7.346;2023-03-13T04:16:52;8.50;99.90
45983;DHT22;31711;47.158;7.346;2023-03-13T04:19:18;8.60;99.90
45983;DHT22;31711;47.158;7.346;2023-03-13T04:21:44;8.50;99.90
45983;DHT22;31711;47.158;7.346;2023-03-13T04:24:10;8.50;99.90
45983;DHT22;31711;47.158;7.346;2023-03-13T04:26:36;8.60;99.90
45983;DHT22;31711;47.158;7.346;2023-03-13T04:29:01;8.60;99.90
45983;DHT22;31711;47.158;7.346;2023-03-13T04:31:27;8.60;99.90
45983;DHT22;31711;47.158;7.346;2023-03-13T04:33:53;8.60;99.90
45983;DHT22;31711;47.158;7.346;2023-03-13T04:36:19;8.60;99.90
45983;DHT22;31711;47.158;7.346;2023-03-13T04:38:45;8.60;99.90
45983;DHT22;31711;47.158;7.346;2023-03-13T04:41:11;8.60;99.90
45983;DHT22;31711;47.158;7.346;2023-03-13T04:43:37;8.60;99.90
45983;DHT22;31711;47.158;7.346;2023-03-13T04:46:03;8.60;99.90
45983;DHT22;31711;47.158;7.346;2023-03-13T04:48:29;8.70;99.90
45983;DHT22;31711;47.158;7.346;2023-03-13T04:50:55;8.70;99.90
45983;DHT22;31711;47.158;7.346;2023-03-13T04:53:21;8.60;99.90
45983;DHT22;31711;47.158;7.346;2023-03-13T04:55:48;8.60;99.90
45983;DHT22;31711;47.158;7.346;2023-03-13T04:58:14;8.60;99.90
45983;DHT22;31711;47.158;7.346;2023-03-13T05:00:41;8.50;99.90
45983;DHT22;31711;47.158;7.346;2023-03-13T05:03:07;8.60;99.90
45983;DHT22;31711;47.158;7.346;2023-03-13T05:05:34;8.60;99.90
45983;DHT22;31711;47.158;7.346;2023-03-13T05:08:01;8.50;99.90
45983;DHT22;31711;47.158;7.346;2023-03-13T05:10:27;8.50;99.90
45983;DHT22;31711;47.158;7.346;2023-03-13T05:12:52;8.60;99.90
45983;DHT22;31711;47.158;7.346;2023-03-13T05:15:18;8.50;99.90
45983;DHT22;31711;47.158;7.346;2023-03-13T05:17:44;8.60;99.90
45983;DHT22;31711;47.158;7.346;2023-03-13T05:20:11;8.60;99.90
45983;DHT22;31711;47.158;7.346;2023-03-13T05:22:37;8.90;99.90
45983;DHT22;31711;47.158;7.346;2023-03-13T05:25:04;9.10;99.90
45983;DHT22;31711;47.158;7.346;2023-03-13T05:27:30;9.10;99.90
45983;DHT22;31711;47.158;7.346;2023-03-13T05:29:56;9.20;99.90
45983;DHT22;31711;47.158;7.346;2023-03-13T05:32:22;9.20;99.90
45983;DHT22;31711;47.158;7.346;2023-03-13T05:34:48;9.20;99.90
45983;DHT22;31711;47.158;7.346;2023-03-13T05:37:14;9.30;99.90
45983;DHT22;31711;47.158;7.346;2023-03-13T05:39:40;9.20;99.90
45983;DHT22;31711;47.158;7.346;2023-03-13T05:42:06;9.20;99.90
45983;DHT22;31711;47.158;7.346;2023-03-13T05:44:32;9.20;99.90
45983;DHT22;31711;47.158;7.346;2023-03-13T05:46:57;9.20;99.90
45983;DHT22;31711;47.158;7.346;2023-03-13T05:49:23;9.30;99.90
45983;DHT22;31711;47.158;7.346;2023-03-13T05:51:49;9.40;99.90
45983;DHT22;31711;47.158;7.346;2023-03-13T05:54:15;9.40;99.90
45983;DHT22;31711;47.158;7.346;2023-03-13T05:56:41;9.50;99.90
45983;DHT22;31711;47.158;7.346;2023-03-13T05:59:07;9.70;99.90
45983;DHT22;31711;47.158;7.346;2023-03-13T06:01:33;9.80;99.90
45983;DHT22;31711;47.158;7.346;2023-03-13T06:03:59;9.90;99.90
45983;DHT22;31711;47.158;7.346;2023-03-13T06:06:25;10.10;99.90
45983;DHT22;31711;47.158;7.346;2023-03-13T06:08:51;9.90;99.90
45983;DHT22;31711;47.158;7.346;2023-03-13T06:11:18;9.90;99.90
45983;DHT22;31711;47.158;7.346;2023-03-13T06:13:44;10.00;99.90
45983;DHT22;31711;47.158;7.346;2023-03-13T06:16:10;9.90;99.90
45983;DHT22;31711;47.158;7.346;2023-03-13T06:18:36;9.80;99.90
45983;DHT22;31711;47.158;7.346;2023-03-13T06:21:02;9.70;99.90
45983;DHT22;31711;47.158;7.346;2023-03-13T06:23:28;9.70;99.90
45983;DHT22;31711;47.158;7.346;2023-03-13T06:25:54;9.80;99.90
45983;DHT22;31711;47.158;7.346;2023-03-13T06:28:20;9.90;99.90
45983;DHT22;31711;47.158;7.346;2023-03-13T06:30:46;9.80;99.90
45983;DHT22;31711;47.158;7.346;2023-03-13T06:33:12;9.90;99.90
45983;DHT22;31711;47.158;7.346;2023-03-13T06:35:40;9.90;99.90
45983;DHT22;31711;47.158;7.346;2023-03-13T06:38:07;10.00;99.90
45983;DHT22;31711;47.158;7.346;2023-03-13T06:40:33;10.00;99.90
45983;DHT22;31711;47.158;7.346;2023-03-13T06:42:59;10.10;99.90
45983;DHT22;31711;47.158;7.346;2023-03-13T06:45:25;10.20;99.90
45983;DHT22;31711;47.158;7.346;2023-03-13T06:47:51;10.30;99.90
45983;DHT22;31711;47.158;7.346;2023-03-13T06:50:18;10.30;99.90
45983;DHT22;31711;47.158;7.346;2023-03-13T06:52:45;10.40;99.90
45983;DHT22;31711;47.158;7.346;2023-03-13T06:55:11;10.50;99.90
45983;DHT22;31711;47.158;7.346;2023-03-13T06:57:37;10.60;99.90
45983;DHT22;31711;47.158;7.346;2023-03-13T07:00:04;10.60;99.90
45983;DHT22;31711;47.158;7.346;2023-03-13T07:02:31;10.60;99.90
45983;DHT22;31711;47.158;7.346;2023-03-13T07:04:57;10.60;99.90
45983;DHT22;31711;47.158;7.346;2023-03-13T07:07:23;10.50;99.90
45983;DHT22;31711;47.158;7.346;2023-03-13T07:09:49;10.50;99.90
45983;DHT22;31711;47.158;7.346;2023-03-13T07:12:15;10.50;99.90
45983;DHT22;31711;47.158;7.346;2023-03-13T07:14:42;10.40;99.90
45983;DHT22;31711;47.158;7.346;2023-03-13T07:17:07;10.40;99.90
45983;DHT22;31711;47.158;7.346;2023-03-13T07:19:33;10.50;99.90
45983;DHT22;31711;47.158;7.346;2023-03-13T07:21:59;10.60;99.90
45983;DHT22;31711;47.158;7.346;2023-03-13T07:24:25;10.70;99.90
45983;DHT22;31711;47.158;7.346;2023-03-13T07:26:51;10.80;99.90
45983;DHT22;31711;47.158;7.346;2023-03-13T07:29:17;10.90;99.90
45983;DHT22;31711;47.158;7.346;2023-03-13T07:31:43;10.90;99.90
45983;DHT22;31711;47.158;7.346;2023-03-13T07:34:09;11.00;99.90
45983;DHT22;31711;47.158;7.346;2023-03-13T07:36:35;11.00;99.90
45983;DHT22;31711;47.158;7.346;2023-03-13T07:39:01;11.00;99.90
45983;DHT22;31711;47.158;7.346;2023-03-13T07:41:27;11.10;99.90
45983;DHT22;31711;47.158;7.346;2023-03-13T07:43:53;11.00;99.90
45983;DHT22;31711;47.158;7.346;2023-03-13T07:46:19;11.00;99.90
45983;DHT22;31711;47.158;7.346;2023-03-13T07:48:47;11.10;99.90
45983;DHT22;31711;47.158;7.346;2023-03-13T07:51:18;11.10;99.90
45983;DHT22;31711;47.158;7.346;2023-03-13T07:53:45;11.10;99.90
45983;DHT22;31711;47.158;7.346;2023-03-13T07:56:17;11.20;99.90
45983;DHT22;31711;47.158;7.346;2023-03-13T07:58:44;11.20;99.90
45983;DHT22;31711;47.158;7.346;2023-03-13T08:01:18;11.20;99.90
45983;DHT22;31711;47.158;7.346;2023-03-13T08:03:45;11.30;99.90
45983;DHT22;31711;47.158;7.346;2023-03-13T08:06:18;11.40;99.90
45983;DHT22;31711;47.158;7.346;2023-03-13T08:08:44;11.50;99.90
45983;DHT22;31711;47.158;7.346;2023-03-13T08:11:13;11.50;99.90
45983;DHT22;31711;47.158;7.346;2023-03-13T08:13:39;11.50;99.90
45983;DHT22;31711;47.158;7.346;2023-03-13T08:16:11;11.60;99.90
45983;DHT22;31711;47.158;7.346;2023-03-13T08:18:39;11.70;99.90
45983;DHT22;31711;47.158;7.346;2023-03-13T08:21:07;11.90;99.90
45983;DHT22;31711;47.158;7.346;2023-03-13T08:23:34;12.00;99.90
45983;DHT22;31711;47.158;7.346;2023-03-13T08:26:06;12.20;99.90
45983;DHT22;31711;47.158;7.346;2023-03-13T08:28:33;12.40;99.90
45983;DHT22;31711;47.158;7.346;2023-03-13T08:31:09;12.30;99.90
45983;DHT22;31711;47.158;7.346;2023-03-13T08:33:36;12.40;99.90
45983;DHT22;31711;47.158;7.346;2023-03-13T08:38:42;12.40;99.90
45983;DHT22;31711;47.158;7.346;2023-03-13T08:41:13;12.60;99.90
45983;DHT22;31711;47.158;7.346;2023-03-13T08:43:39;12.60;99.90
45983;DHT22;31711;47.158;7.346;2023-03-13T08:46:05;12.70;99.90
45983;DHT22;31711;47.158;7.346;2023-03-13T08:48:31;12.90;99.90
45983;DHT22;31711;47.158;7.346;2023-03-13T08:51:00;12.90;99.90
45983;DHT22;31711;47.158;7.346;2023-03-13T08:53:27;12.90;99.90
45983;DHT22;31711;47.158;7.346;2023-03-13T08:55:53;12.90;99.90
45983;DHT22;31711;47.158;7.346;2023-03-13T08:58:20;13.00;99.90
45983;DHT22;31711;47.158;7.346;2023-03-13T09:00:46;13.00;99.90
45983;DHT22;31711;47.158;7.346;2023-03-13T09:03:11;13.00;99.90
45983;DHT22;31711;47.158;7.346;2023-03-13T09:05:37;13.30;99.90
45983;DHT22;31711;47.158;7.346;2023-03-13T09:08:03;13.70;99.90
45983;DHT22;31711;47.158;7.346;2023-03-13T09:10:32;13.90;99.90
45983;DHT22;31711;47.158;7.346;2023-03-13T09:12:58;13.80;99.90
45983;DHT22;31711;47.158;7.346;2023-03-13T09:15:24;14.00;99.90
45983;DHT22;31711;47.158;7.346;2023-03-13T09:17:50;14.00;99.90
45983;DHT22;31711;47.158;7.346;2023-03-13T09:20:16;14.00;99.90
45983;DHT22;31711;47.158;7.346;2023-03-13T09:22:44;14.10;99.90
45983;DHT22;31711;47.158;7.346;2023-03-13T09:25:10;14.20;99.90
45983;DHT22;31711;47.158;7.346;2023-03-13T09:27:36;14.20;99.90
45983;DHT22;31711;47.158;7.346;2023-03-13T09:30:03;14.00;99.90
45983;DHT22;31711;47.158;7.346;2023-03-13T09:32:29;13.90;99.90
45983;DHT22;31711;47.158;7.346;2023-03-13T09:34:55;13.90;99.90
45983;DHT22;31711;47.158;7.346;2023-03-13T09:37:21;13.80;99.90
45983;DHT22;31711;47.158;7.346;2023-03-13T09:39:48;13.60;99.90
45983;DHT22;31711;47.158;7.346;2023-03-13T09:42:20;13.40;99.90
45983;DHT22;31711;47.158;7.346;2023-03-13T09:45:03;13.40;99.90
45983;DHT22;31711;47.158;7.346;2023-03-13T09:47:53;13.40;99.90
45983;DHT22;31711;47.158;7.346;2023-03-13T09:50:22;13.60;99.90
45983;DHT22;31711;47.158;7.346;2023-03-13T09:52:53;13.80;99.90
45983;DHT22;31711;47.158;7.346;2023-03-13T09:55:25;14.00;99.90
45983;DHT22;31711;47.158;7.346;2023-03-13T10:00:24;14.00;99.90
45983;DHT22;31711;47.158;7.346;2023-03-13T10:03:16;14.10;99.90
45983;DHT22;31711;47.158;7.346;2023-03-13T10:05:50;14.30;99.90
45983;DHT22;31711;47.158;7.346;2023-03-13T10:08:25;14.50;99.90
45983;DHT22;31711;47.158;7.346;2023-03-13T10:16:14;14.60;99.90
45983;DHT22;31711;47.158;7.346;2023-03-13T10:18:44;14.70;99.90
45983;DHT22;31711;47.158;7.346;2023-03-13T10:21:24;14.90;99.90
45983;DHT22;31711;47.158;7.346;2023-03-13T10:26:25;15.30;99.90
45983;DHT22;31711;47.158;7.346;2023-03-13T10:28:52;15.20;99.90
45983;DHT22;31711;47.158;7.346;2023-03-13T10:31:48;15.20;99.90
45983;DHT22;31711;47.158;7.346;2023-03-13T10:34:18;15.20;99.90
45983;DHT22;31711;47.158;7.346;2023-03-13T10:36:46;15.30;99.90
45983;DHT22;31711;47.158;7.346;2023-03-13T10:39:21;15.40;99.90
45983;DHT22;31711;47.158;7.346;2023-03-13T10:41:48;15.40;99.90
45983;DHT22;31711;47.158;7.346;2023-03-13T10:44:17;15.60;99.90
45983;DHT22;31711;47.158;7.346;2023-03-13T10:46:46;15.40;99.90
45983;DHT22;31711;47.158;7.346;2023-03-13T10:49:15;15.60;99.90
45983;DHT22;31711;47.158;7.346;2023-03-13T10:54:27;15.50;99.90
45983;DHT22;31711;47.158;7.346;2023-03-13T10:57:35;15.60;99.90
45983;DHT22;31711;47.158;7.346;2023-03-13T11:00:22;15.60;99.90
45983;DHT22;31711;47.158;7.346;2023-03-13T11:02:48;15.60;99.90
45983;DHT22;31711;47.158;7.346;2023-03-13T11:05:35;15.50;99.90
45983;DHT22;31711;47.158;7.346;2023-03-13T11:08:21;15.60;99.90
45983;DHT22;31711;47.158;7.346;2023-03-13T11:11:00;15.60;99.90
45983;DHT22;31711;47.158;7.346;2023-03-13T11:13:41;15.60;99.90
45983;DHT22;31711;47.158;7.346;2023-03-13T11:16:22;15.70;99.90
45983;DHT22;31711;47.158;7.346;2023-03-13T11:22:06;15.80;99.90
45983;DHT22;31711;47.158;7.346;2023-03-13T11:25:02;16.00;99.90
45983;DHT22;31711;47.158;7.346;2023-03-13T11:33:37;16.10;99.90
45983;DHT22;31711;47.158;7.346;2023-03-13T11:38:36;16.20;99.90
45983;DHT22;31711;47.158;7.346;2023-03-13T11:43:55;16.30;99.90
45983;DHT22;31711;47.158;7.346;2023-03-13T11:49:17;16.30;99.90
45983;DHT22;31711;47.158;7.346;2023-03-13T11:52:09;16.40;99.90
45983;DHT22;31711;47.158;7.346;2023-03-13T11:58:01;16.70;99.90
45983;DHT22;31711;47.158;7.346;2023-03-13T12:00:41;16.80;99.90
45983;DHT22;31711;47.158;7.346;2023-03-13T12:06:15;17.00;99.90
45983;DHT22;31711;47.158;7.346;2023-03-13T12:08:48;17.00;99.90
45983;DHT22;31711;47.158;7.346;2023-03-13T12:11:23;17.20;99.90
45983;DHT22;31711;47.158;7.346;2023-03-13T12:17:10;17.30;99.90
45983;DHT22;31711;47.158;7.346;2023-03-13T12:19:28;17.20;99.90
45983;DHT22;31711;47.158;7.346;2023-03-13T12:22:08;17.20;99.90
45983;DHT22;31711;47.158;7.346;2023-03-13T12:25:23;17.00;99.90
45983;DHT22;31711;47.158;7.346;2023-03-13T12:28:06;17.20;99.90
45983;DHT22;31711;47.158;7.346;2023-03-13T12:30:39;17.30;99.90
45983;DHT22;31711;47.158;7.346;2023-03-13T12:33:28;17.20;99.90
45983;DHT22;31711;47.158;7.346;2023-03-13T12:38:56;17.50;99.90
45983;DHT22;31711;47.158;7.346;2023-03-13T12:41:45;17.50;99.90
45983;DHT22;31711;47.158;7.346;2023-03-13T12:44:17;17.40;99.90
45983;DHT22;31711;47.158;7.346;2023-03-13T12:47:03;17.50;99.90
45983;DHT22;31711;47.158;7.346;2023-03-13T12:49:47;17.60;99.90
45983;DHT22;31711;47.158;7.346;2023-03-13T12:55:32;17.70;99.90
45983;DHT22;31711;47.158;7.346;2023-03-13T12:58:10;17.90;99.90
45983;DHT22;31711;47.158;7.346;2023-03-13T13:00:39;17.90;99.90
45983;DHT22;31711;47.158;7.346;2023-03-13T13:03:25;18.00;99.90
45983;DHT22;31711;47.158;7.346;2023-03-13T13:06:08;18.10;99.90
45983;DHT22;31711;47.158;7.346;2023-03-13T13:16:47;18.30;99.90
45983;DHT22;31711;47.158;7.346;2023-03-13T13:24:59;18.20;99.90
45983;DHT22;31711;47.158;7.346;2023-03-13T13:30:00;18.20;99.90
45983;DHT22;31711;47.158;7.346;2023-03-13T13:32:42;18.40;99.90
45983;DHT22;31711;47.158;7.346;2023-03-13T13:37:38;18.60;99.90
45983;DHT22;31711;47.158;7.346;2023-03-13T13:40:27;18.50;99.90
45983;DHT22;31711;47.158;7.346;2023-03-13T13:47:52;18.40;99.90
45983;DHT22;31711;47.158;7.346;2023-03-13T13:50:37;18.50;99.90
45983;DHT22;31711;47.158;7.346;2023-03-13T13:56:35;18.90;99.90
45983;DHT22;31711;47.158;7.346;2023-03-13T14:04:36;18.70;99.90
45983;DHT22;31711;47.158;7.346;2023-03-13T14:07:06;18.80;99.90
45983;DHT22;31711;47.158;7.346;2023-03-13T14:09:46;18.80;99.90
45983;DHT22;31711;47.158;7.346;2023-03-13T14:13:00;18.80;99.90
45983;DHT22;31711;47.158;7.346;2023-03-13T14:15:29;18.60;99.90
45983;DHT22;31711;47.158;7.346;2023-03-13T14:18:15;18.60;99.90
45983;DHT22;31711;47.158;7.346;2023-03-13T14:20:52;18.80;99.90
45983;DHT22;31711;47.158;7.346;2023-03-13T14:23:37;18.80;99.90
45983;DHT22;31711;47.158;7.346;2023-03-13T14:26:17;18.90;99.90
45983;DHT22;31711;47.158;7.346;2023-03-13T14:29:00;18.90;99.90
45983;DHT22;31711;47.158;7.346;2023-03-13T14:31:37;19.00;99.90
45983;DHT22;31711;47.158;7.346;2023-03-13T14:34:07;18.90;99.90
45983;DHT22;31711;47.158;7.346;2023-03-13T14:36:56;18.50;99.90
45983;DHT22;31711;47.158;7.346;2023-03-13T14:42:12;18.20;99.90
45983;DHT22;31711;47.158;7.346;2023-03-13T14:44:39;18.30;99.90
45983;DHT22;31711;47.158;7.346;2023-03-13T14:49:44;18.40;99.90
45983;DHT22;31711;47.158;7.346;2023-03-13T14:52:21;18.20;99.90
45983;DHT22;31711;47.158;7.346;2023-03-13T14:54:57;18.30;99.90
45983;DHT22;31711;47.158;7.346;2023-03-13T14:57:24;18.60;99.90
45983;DHT22;31711;47.158;7.346;2023-03-13T14:59:52;18.50;99.90
45983;DHT22;31711;47.158;7.346;2023-03-13T15:02:23;18.50;99.90
45983;DHT22;31711;47.158;7.346;2023-03-13T15:05:00;18.60;99.90
45983;DHT22;31711;47.158;7.346;2023-03-13T15:07:41;18.60;99.90
45983;DHT22;31711;47.158;7.346;2023-03-13T15:12:44;19.00;99.90
45983;DHT22;31711;47.158;7.346;2023-03-13T15:15:11;18.80;99.90
45983;DHT22;31711;47.158;7.346;2023-03-13T15:17:37;19.00;99.90
45983;DHT22;31711;47.158;7.346;2023-03-13T15:20:03;19.10;99.90
45983;DHT22;31711;47.158;7.346;2023-03-13T15:22:38;19.10;99.90
45983;DHT22;31711;47.158;7.346;2023-03-13T15:25:21;19.10;99.90
45983;DHT22;31711;47.158;7.346;2023-03-13T15:27:48;18.80;99.90
45983;DHT22;31711;47.158;7.346;2023-03-13T15:30:21;18.50;99.90
45983;DHT22;31711;47.158;7.346;2023-03-13T15:32:48;18.40;99.90
45983;DHT22;31711;47.158;7.346;2023-03-13T15:37:59;18.20;99.90
45983;DHT22;31711;47.158;7.346;2023-03-13T15:40:26;18.20;99.90
45983;DHT22;31711;47.158;7.346;2023-03-13T15:42:53;18.40;99.90
45983;DHT22;31711;47.158;7.346;2023-03-13T15:45:20;18.60;99.90
45983;DHT22;31711;47.158;7.346;2023-03-13T15:47:46;18.80;99.90
45983;DHT22;31711;47.158;7.346;2023-03-13T15:50:17;18.90;99.90
45983;DHT22;31711;47.158;7.346;2023-03-13T15:52:43;18.90;99.90
45983;DHT22;31711;47.158;7.346;2023-03-13T15:55:10;18.90;99.90
45983;DHT22;31711;47.158;7.346;2023-03-13T15:57:41;18.80;99.90
45983;DHT22;31711;47.158;7.346;2023-03-13T16:00:23;18.60;99.90
45983;DHT22;31711;47.158;7.346;2023-03-13T16:02:49;18.50;99.90
45983;DHT22;31711;47.158;7.346;2023-03-13T16:05:15;18.40;99.90
45983;DHT22;31711;47.158;7.346;2023-03-13T16:07:42;18.20;99.90
45983;DHT22;31711;47.158;7.346;2023-03-13T16:10:20;18.10;99.90
45983;DHT22;31711;47.158;7.346;2023-03-13T16:12:46;18.00;99.90
45983;DHT22;31711;47.158;7.346;2023-03-13T16:15:12;17.90;99.90
45983;DHT22;31711;47.158;7.346;2023-03-13T16:17:38;17.90;99.90
45983;DHT22;31711;47.158;7.346;2023-03-13T16:20:14;17.90;99.90
45983;DHT22;31711;47.158;7.346;2023-03-13T16:22:41;17.90;99.90
45983;DHT22;31711;47.158;7.346;2023-03-13T16:25:08;17.90;99.90
45983;DHT22;31711;47.158;7.346;2023-03-13T16:27:34;17.90;99.90
45983;DHT22;31711;47.158;7.346;2023-03-13T16:30:00;17.90;99.90
45983;DHT22;31711;47.158;7.346;2023-03-13T16:32:26;17.90;99.90
45983;DHT22;31711;47.158;7.346;2023-03-13T16:34:52;18.00;99.90
45983;DHT22;31711;47.158;7.346;2023-03-13T16:37:19;18.20;99.90
45983;DHT22;31711;47.158;7.346;2023-03-13T16:39:46;18.20;99.90
45983;DHT22;31711;47.158;7.346;2023-03-13T16:42:12;18.30;99.90
45983;DHT22;31711;47.158;7.346;2023-03-13T16:44:39;18.40;99.90
45983;DHT22;31711;47.158;7.346;2023-03-13T16:47:34;18.50;99.90
45983;DHT22;31711;47.158;7.346;2023-03-13T16:50:02;18.40;99.90
45983;DHT22;31711;47.158;7.346;2023-03-13T16:52:28;18.40;99.90
45983;DHT22;31711;47.158;7.346;2023-03-13T16:54:53;18.40;99.90
45983;DHT22;31711;47.158;7.346;2023-03-13T16:57:23;18.30;99.90
45983;DHT22;31711;47.158;7.346;2023-03-13T16:59:51;18.20;99.90
45983;DHT22;31711;47.158;7.346;2023-03-13T17:02:18;17.90;99.90
45983;DHT22;31711;47.158;7.346;2023-03-13T17:04:45;17.70;99.90
45983;DHT22;31711;47.158;7.346;2023-03-13T17:07:18;17.50;99.90
45983;DHT22;31711;47.158;7.346;2023-03-13T17:09:44;17.20;99.90
45983;DHT22;31711;47.158;7.346;2023-03-13T17:12:11;17.00;99.90
45983;DHT22;31711;47.158;7.346;2023-03-13T17:14:37;16.80;99.90
45983;DHT22;31711;47.158;7.346;2023-03-13T17:17:03;16.60;99.90
45983;DHT22;31711;47.158;7.346;2023-03-13T17:19:29;16.60;99.90
45983;DHT22;31711;47.158;7.346;2023-03-13T17:21:55;16.40;99.90
45983;DHT22;31711;47.158;7.346;2023-03-13T17:24:22;16.30;99.90
45983;DHT22;31711;47.158;7.346;2023-03-13T17:26:48;16.30;99.90
45983;DHT22;31711;47.158;7.346;2023-03-13T17:29:17;16.10;99.90
45983;DHT22;31711;47.158;7.346;2023-03-13T17:31:48;16.10;99.90
45983;DHT22;31711;47.158;7.346;2023-03-13T17:34:14;16.00;99.90
45983;DHT22;31711;47.158;7.346;2023-03-13T17:36:42;15.90;99.90